createdAt,value
2017-05-10T17:54:22.602Z,67.62
2017-05-10T17:54:50.875Z,66.85
2017-05-10T17:55:18.849Z,66.85
2017-05-10T17:55:46.966Z,66.85
2017-05-10T17:56:15.203Z,66.17
2017-05-10T17:56:43.469Z,66.17
2017-05-10T17:57:11.638Z,66.36
2017-05-10T17:57:39.916Z,65.5
2017-05-10T17:58:08.253Z,65.43
2017-05-10T17:58:36.558Z,64.76
2017-05-10T17:59:04.881Z,64.18
2017-05-10T17:59:33.138Z,63.92
2017-05-10T18:00:01.329Z,63.56
2017-05-10T18:00:29.594Z,63.27
2017-05-10T18:00:57.767Z,63.08
2017-05-10T18:01:26.059Z,62.82
2017-05-10T18:01:54.228Z,62.14
2017-05-10T18:02:22.370Z,61.85
2017-05-10T18:02:50.663Z,62.04
2017-05-10T18:03:19.034Z,62.01
2017-05-10T18:03:47.701Z,62.11
2017-05-10T18:04:22.577Z,62.69
2017-05-10T18:05:04.988Z,63.27
2017-05-10T18:05:37.869Z,63.37
2017-05-10T18:06:06.114Z,64.04
2017-05-10T18:06:34.274Z,63.56
2017-05-10T18:07:02.582Z,63.95
2017-05-10T18:07:30.823Z,63.85
2017-05-10T18:07:59.135Z,63.76
2017-05-10T18:08:27.390Z,63.95
2017-05-10T18:08:55.590Z,63.76
2017-05-10T18:09:23.591Z,63.85
2017-05-10T18:09:51.973Z,64.04
2017-05-10T18:10:20.320Z,63.76
2017-05-10T18:10:48.697Z,63.85
2017-05-10T18:11:17.019Z,64.04
2017-05-10T18:11:45.176Z,63.56
2017-05-10T18:12:13.407Z,63.76
2017-05-10T18:12:41.584Z,64.14
2017-05-10T18:13:09.853Z,64.21
2017-05-10T18:13:38.279Z,64.59
2017-05-10T18:14:06.466Z,64.89
2017-05-10T18:14:34.796Z,64.89
2017-05-10T18:15:03.390Z,65.47
2017-05-10T18:15:31.706Z,64.01
2017-05-10T18:15:59.879Z,63.92
2017-05-10T18:16:28.145Z,64.11
2017-05-10T18:16:56.328Z,64.37
2017-05-10T18:17:24.516Z,64.85
2017-05-10T18:17:52.658Z,63.02
2017-05-10T18:18:20.835Z,62.82
2017-05-10T18:18:48.968Z,62.73
2017-05-10T18:19:17.164Z,62.98
2017-05-10T18:19:45.295Z,63.18
2017-05-10T18:20:13.549Z,63.28
2017-05-10T18:20:41.821Z,63.76
2017-05-10T18:21:10.028Z,63.95
2017-05-10T18:21:38.388Z,63.95
2017-05-10T18:22:06.615Z,64.14
2017-05-10T18:22:34.803Z,64.72
2017-05-10T18:23:03.171Z,64.53
2017-05-10T18:23:31.349Z,64.53
2017-05-10T18:23:59.612Z,64.05
2017-05-10T18:24:30.052Z,63.66
2017-05-10T18:25:03.731Z,64.63
2017-05-10T18:25:32.130Z,64.63
2017-05-10T18:26:00.637Z,65.01
2017-05-10T18:26:28.819Z,65.78
2017-05-10T18:26:57.192Z,65.4
2017-05-10T18:27:25.525Z,66.17
2017-05-10T18:27:53.787Z,66.36
2017-05-10T18:28:22.006Z,66.63
2017-05-10T18:28:50.051Z,66.63
2017-05-10T18:29:18.226Z,66.14
2017-05-10T18:29:46.518Z,65.56
2017-05-10T18:30:15.116Z,65.47
2017-05-10T18:30:43.585Z,65.66
2017-05-10T18:31:11.788Z,65.08
2017-05-10T18:31:40.093Z,65.17
2017-05-10T18:32:08.464Z,64.98
2017-05-10T18:32:36.630Z,64.5
2017-05-10T18:33:04.754Z,64.69
2017-05-10T18:33:32.953Z,64.5
2017-05-10T18:34:01.319Z,64.59
2017-05-10T18:34:29.606Z,63.92
2017-05-10T18:34:57.809Z,64.01
2017-05-10T18:35:26.205Z,63.24
2017-05-10T18:35:54.485Z,62.76
2017-05-10T18:36:22.589Z,62.66
2017-05-10T18:36:50.767Z,62.76
2017-05-10T18:37:18.835Z,62.76
2017-05-10T18:37:46.854Z,63.34
2017-05-10T18:38:15.024Z,63.73
2017-05-10T18:38:43.259Z,63.82
2017-05-10T18:39:11.611Z,64.11
2017-05-10T18:39:39.775Z,63.92
2017-05-10T18:40:08.076Z,63.92
2017-05-10T18:40:36.344Z,64.01
2017-05-10T18:41:04.594Z,64.69
2017-05-10T18:41:32.823Z,64.69
2017-05-10T18:42:00.891Z,64.79
2017-05-10T18:42:29.097Z,64.21
2017-05-10T18:42:57.399Z,64.11
2017-05-10T18:43:25.604Z,64.01
2017-05-10T18:43:53.800Z,64.14
2017-05-10T18:44:22.077Z,63.66
2017-05-10T18:44:50.337Z,64.05
2017-05-10T18:45:18.698Z,63.66
2017-05-10T18:45:46.986Z,63.76
2017-05-10T18:46:15.309Z,63.66
2017-05-10T18:46:43.632Z,63.95
2017-05-10T18:47:11.935Z,63.66
2017-05-10T18:47:40.118Z,63.95
2017-05-10T18:48:08.490Z,63.56
2017-05-10T18:48:36.773Z,64.53
2017-05-10T18:49:05.119Z,64.43
2017-05-10T18:49:33.379Z,63.98
2017-05-10T18:50:01.550Z,63.79
2017-05-10T18:50:30.102Z,63.82
2017-05-10T18:50:58.412Z,63.05
2017-05-10T18:51:26.759Z,62.4
2017-05-10T18:51:55.001Z,62.11
2017-05-10T18:52:23.292Z,61.66
2017-05-10T18:52:51.386Z,60.59
2017-05-10T18:53:19.778Z,60.24
2017-05-10T18:53:48.475Z,60.62
2017-05-10T18:54:16.808Z,60.07
2017-05-10T18:54:45.110Z,59.3
2017-05-10T18:55:13.266Z,59.2
2017-05-10T18:55:41.878Z,60.33
2017-05-10T18:56:10.185Z,60.33
2017-05-10T18:56:38.321Z,60.88
2017-05-10T18:57:06.598Z,61.95
2017-05-10T18:57:34.928Z,62.04
2017-05-10T18:58:03.177Z,62.3
2017-05-10T18:58:31.527Z,62.69
2017-05-10T18:58:59.758Z,62.88
2017-05-10T18:59:28.115Z,63.82
2017-05-10T18:59:56.264Z,64.89
2017-05-10T19:00:24.529Z,65.05
2017-05-10T19:00:52.783Z,65.34
2017-05-10T19:01:21.107Z,65.53
2017-05-10T19:01:49.390Z,66.59
2017-05-10T19:02:17.547Z,66.85
2017-05-10T19:02:45.824Z,67.14
2017-05-10T19:03:13.994Z,67.04
2017-05-10T19:03:42.205Z,67.33
2017-05-10T19:04:10.375Z,67.72
2017-05-10T19:04:38.693Z,68.65
2017-05-10T19:05:07.030Z,69.13
2017-05-10T19:05:35.263Z,69.23
2017-05-10T19:06:03.511Z,70.64
2017-05-10T19:06:31.793Z,70.45
2017-05-10T19:07:00.099Z,70.64
2017-05-10T19:07:28.282Z,70.84
2017-05-10T19:07:56.460Z,71.12
2017-05-10T19:08:24.668Z,71.42
2017-05-10T19:08:52.899Z,71.9
2017-05-10T19:09:21.199Z,72.38
2017-05-10T19:09:49.429Z,71.8
2017-05-10T19:10:17.701Z,71.86
2017-05-10T19:10:46.055Z,72.34
2017-05-10T19:11:14.180Z,72.44
2017-05-10T19:11:42.576Z,72.83
2017-05-10T19:12:10.663Z,73.6
2017-05-10T19:12:38.720Z,73.5
2017-05-10T19:13:07.048Z,73.5
2017-05-10T19:13:35.306Z,73.95
2017-05-10T19:14:03.639Z,74.24
2017-05-10T19:14:31.833Z,74.82
2017-05-10T19:15:00.055Z,75.1
2017-05-10T19:15:28.258Z,75.68
2017-05-10T19:15:56.584Z,76.07
2017-05-10T19:16:24.749Z,77.03
2017-05-10T19:16:53.060Z,77.38
2017-05-10T19:17:21.228Z,78.19
2017-05-10T19:17:49.406Z,77.96
2017-05-10T19:18:17.738Z,77.86
2017-05-10T19:18:46.025Z,78.83
2017-05-10T19:19:14.286Z,79.31
2017-05-10T19:19:42.632Z,79.16
2017-05-10T19:20:10.781Z,80.37
2017-05-10T19:20:39.111Z,79.79
2017-05-10T19:21:07.262Z,79.79
2017-05-10T19:21:35.487Z,79.79
2017-05-10T19:22:03.766Z,79.89
2017-05-10T19:22:31.802Z,79.83
2017-05-10T19:22:59.993Z,80.02
2017-05-10T19:23:28.203Z,80.31
2017-05-10T19:23:56.459Z,79.79
2017-05-10T19:24:24.760Z,80.56
2017-05-10T19:24:53.045Z,80.27
2017-05-10T19:25:21.299Z,79.89
2017-05-10T19:25:49.464Z,80.85
2017-05-10T19:26:17.722Z,80.94
2017-05-10T19:26:45.991Z,81.43
2017-05-10T19:27:14.307Z,81.72
2017-05-10T19:27:42.588Z,82.2
2017-05-10T19:28:10.856Z,82.49
2017-05-10T19:28:39.134Z,82.87
2017-05-10T19:29:07.445Z,83.7
2017-05-10T19:29:35.779Z,83.99
2017-05-10T19:30:04.020Z,85.05
2017-05-10T19:30:32.261Z,84.56
2017-05-10T19:31:00.626Z,84.86
2017-05-10T19:31:28.819Z,85.14
2017-05-10T19:31:56.853Z,85.05
2017-05-10T19:32:25.348Z,85.53
2017-05-10T19:32:53.740Z,85.63
2017-05-10T19:33:22.005Z,86.59
2017-05-10T19:33:50.293Z,86.59
2017-05-10T19:34:18.384Z,86.4
2017-05-10T19:34:46.675Z,86.78
2017-05-10T19:35:14.863Z,87.07
2017-05-10T19:35:43.113Z,87.36
2017-05-10T19:36:11.486Z,86.78
2017-05-10T19:36:39.722Z,87.17
2017-05-10T19:37:07.959Z,86.78
2017-05-10T19:37:36.167Z,86.78
2017-05-10T19:38:04.294Z,87.26
2017-05-10T19:38:32.590Z,86.98
2017-05-10T19:39:00.837Z,87.36
2017-05-10T19:39:28.916Z,87.55
2017-05-10T19:39:57.011Z,87.26
2017-05-10T19:40:25.515Z,87.94
2017-05-10T19:40:53.932Z,88.32
2017-05-10T19:41:22.322Z,89.15
2017-05-10T19:41:50.756Z,88.95
2017-05-10T19:42:19.236Z,89.05
2017-05-10T19:42:47.742Z,89.24
2017-05-10T19:43:16.115Z,89.15
2017-05-10T19:43:44.564Z,89.05
2017-05-10T19:44:12.952Z,89.53
2017-05-10T19:44:41.593Z,88.95
2017-05-10T19:45:10.048Z,89.34
2017-05-10T19:45:38.520Z,89.34
2017-05-10T19:46:06.769Z,90.11
2017-05-10T19:46:35.137Z,89.92
2017-05-10T19:47:03.322Z,90.78
2017-05-10T19:47:31.510Z,91.17
2017-05-10T19:47:59.915Z,91.27
2017-05-10T19:48:28.194Z,91.65
2017-05-10T19:48:56.435Z,91.46
2017-05-10T19:49:24.633Z,91.75
2017-05-10T19:49:52.930Z,91.84
2017-05-10T19:50:21.147Z,92.57
2017-05-10T19:50:49.368Z,92.03
2017-05-10T19:51:17.650Z,92.28
2017-05-10T19:51:45.882Z,92.8
2017-05-10T19:52:14.030Z,93.62
2017-05-10T19:52:42.146Z,93.62
2017-05-10T19:53:10.335Z,93.53
2017-05-10T19:53:38.600Z,93.82
2017-05-10T19:54:06.775Z,94.1
2017-05-10T19:54:34.842Z,94.1
2017-05-10T19:55:03.161Z,94.1
2017-05-10T19:55:31.450Z,94.68
2017-05-10T19:55:59.747Z,95.17
2017-05-10T19:56:28.093Z,94.68
2017-05-10T19:56:56.217Z,95.74
2017-05-10T19:57:24.511Z,95.55
2017-05-10T19:57:52.721Z,95.94
2017-05-10T19:58:21.000Z,95.84
2017-05-10T19:58:49.304Z,96.22
2017-05-10T19:59:17.471Z,96.03
2017-05-10T19:59:45.722Z,96.89
2017-05-10T20:00:13.971Z,96.51
2017-05-10T20:00:42.141Z,96.7
2017-05-10T20:01:10.432Z,97.19
2017-05-10T20:01:38.618Z,97.71
2017-05-10T20:02:06.691Z,97.52
2017-05-10T20:02:34.790Z,96.75
2017-05-10T20:03:03.063Z,97.42
2017-05-10T20:03:31.323Z,97.42
2017-05-10T20:03:59.573Z,97.81
2017-05-10T20:04:27.782Z,98
2017-05-10T20:04:55.942Z,98.39
2017-05-10T20:05:24.064Z,98.29
2017-05-10T20:05:52.311Z,99.06
2017-05-10T20:06:20.599Z,98.68
2017-05-10T20:06:49.100Z,98.68
2017-05-10T20:07:17.286Z,99.44
2017-05-10T20:07:45.559Z,99.16
2017-05-10T20:08:13.856Z,99.26
2017-05-10T20:08:42.043Z,99.83
2017-05-10T20:09:10.184Z,99.64
2017-05-10T20:09:38.463Z,99.64
2017-05-10T20:10:06.629Z,99.83
2017-05-10T20:10:34.796Z,99.54
2017-05-10T20:11:03.093Z,99.4
2017-05-10T20:11:31.125Z,99.49
2017-05-10T20:11:59.365Z,99.83
2017-05-10T20:12:27.430Z,99.98
2017-05-10T20:12:55.605Z,99.99
2017-05-10T20:13:23.830Z,99.99
2017-05-10T20:13:52.146Z,99.99
2017-05-10T20:14:20.189Z,99.99
2017-05-10T20:14:48.367Z,99.99
2017-05-10T20:15:16.633Z,99.99
2017-05-10T20:15:44.787Z,99.99
2017-05-10T20:16:12.952Z,99.99
2017-05-10T20:16:41.095Z,99.99
2017-05-10T20:17:09.306Z,99.99
2017-05-10T20:17:37.592Z,99.99
2017-05-10T20:18:05.678Z,99.99
2017-05-10T20:18:33.737Z,99.99
2017-05-10T20:19:02.016Z,99.99
2017-05-10T20:19:30.288Z,99.99
2017-05-10T20:19:58.504Z,99.99
2017-05-10T20:20:26.768Z,99.99
2017-05-10T20:20:55.063Z,99.99
2017-05-10T20:21:23.300Z,99.99
2017-05-10T20:21:51.421Z,99.99
2017-05-10T20:22:19.720Z,99.99
2017-05-10T20:22:47.798Z,99.99
2017-05-10T20:23:16.076Z,99.99
2017-05-10T20:23:44.369Z,99.99
2017-05-10T20:24:12.660Z,99.99
2017-05-10T20:24:40.994Z,99.99
2017-05-10T20:25:09.175Z,99.99
2017-05-10T20:25:37.379Z,99.99
2017-05-10T20:26:05.599Z,99.99
2017-05-10T20:26:33.877Z,99.99
2017-05-10T20:27:02.280Z,99.99
2017-05-10T20:27:30.367Z,99.99
2017-05-10T20:27:58.606Z,99.99
2017-05-10T20:28:26.733Z,99.99
2017-05-10T20:28:54.907Z,99.99
2017-05-10T20:29:23.168Z,99.99
2017-05-10T20:29:51.402Z,99.99
2017-05-10T20:30:19.675Z,99.99
2017-05-10T20:30:47.947Z,99.99
2017-05-10T20:31:16.124Z,99.99
2017-05-10T20:31:44.294Z,99.99
2017-05-10T20:32:13.035Z,99.99
2017-05-10T20:32:41.669Z,99.99
2017-05-10T20:33:10.120Z,99.99
2017-05-10T20:33:38.517Z,99.99
2017-05-10T20:34:07.091Z,99.99
2017-05-10T20:34:35.791Z,99.99
2017-05-10T20:35:04.493Z,99.99
2017-05-10T20:35:33.083Z,99.99
2017-05-10T20:36:01.302Z,99.99
2017-05-10T20:36:29.514Z,99.99
2017-05-10T20:36:57.841Z,99.99
2017-05-10T20:37:26.181Z,99.99
2017-05-10T20:37:54.323Z,99.99
2017-05-10T20:38:22.788Z,99.99
2017-05-10T20:38:51.432Z,99.99
2017-05-10T20:39:19.911Z,99.99
2017-05-10T20:39:48.362Z,99.99
2017-05-10T20:40:17.044Z,99.99
2017-05-10T20:40:45.632Z,99.99
2017-05-10T20:41:14.067Z,99.99
2017-05-10T20:41:42.475Z,99.99
2017-05-10T20:42:10.836Z,99.99
2017-05-10T20:42:39.091Z,99.99
2017-05-10T20:43:07.330Z,99.99
2017-05-10T20:43:35.620Z,99.99
2017-05-10T20:44:03.897Z,99.99
2017-05-10T20:44:32.069Z,99.99
2017-05-10T20:45:00.236Z,99.99
2017-05-10T20:45:28.450Z,99.99
2017-05-10T20:45:56.702Z,99.99
2017-05-10T20:46:24.889Z,99.99
2017-05-10T20:46:53.205Z,99.99
2017-05-10T20:47:21.435Z,99.99
2017-05-10T20:47:49.729Z,99.99
2017-05-10T20:48:18.012Z,99.99
2017-05-10T20:48:46.180Z,99.99
2017-05-10T20:49:14.415Z,99.99
2017-05-10T20:49:42.716Z,99.99
2017-05-10T20:50:10.874Z,99.99
2017-05-10T20:50:39.093Z,99.99
2017-05-10T20:51:07.363Z,99.99
2017-05-10T20:51:35.606Z,99.99
2017-05-10T20:52:03.676Z,99.99
2017-05-10T20:52:31.968Z,99.99
2017-05-10T20:53:00.250Z,99.99
2017-05-10T20:53:28.475Z,99.99
2017-05-10T20:53:56.768Z,99.99
2017-05-10T20:54:25.122Z,99.99
2017-05-10T20:54:53.333Z,99.99
2017-05-10T20:55:21.600Z,99.99
2017-05-10T20:55:49.846Z,99.99
2017-05-10T20:56:18.137Z,99.99
2017-05-10T20:56:46.437Z,99.99
2017-05-10T20:57:14.713Z,99.99
2017-05-10T20:57:42.906Z,99.99
2017-05-10T20:58:11.136Z,99.99
2017-05-10T20:58:39.326Z,99.99
2017-05-10T20:59:07.584Z,99.99
2017-05-10T20:59:35.863Z,99.99
2017-05-10T21:00:04.406Z,99.99
2017-05-10T21:00:32.981Z,99.99
2017-05-10T21:01:01.459Z,99.99
2017-05-10T21:01:30.142Z,99.99
2017-05-10T21:01:58.724Z,99.99
2017-05-10T21:02:27.393Z,99.99
2017-05-10T21:02:55.867Z,99.99
2017-05-10T21:03:24.069Z,99.99
2017-05-10T21:03:52.335Z,99.99
2017-05-10T21:04:20.612Z,99.99
2017-05-10T21:04:48.810Z,99.99
2017-05-10T21:05:17.055Z,99.99
2017-05-10T21:05:45.352Z,99.99
2017-05-10T21:06:13.547Z,99.99
2017-05-10T21:06:41.786Z,99.99
2017-05-10T21:07:09.843Z,99.99
2017-05-10T21:07:38.118Z,99.99
2017-05-10T21:08:06.282Z,99.99
2017-05-10T21:08:34.458Z,99.99
2017-05-10T21:09:02.634Z,99.99
2017-05-10T21:09:30.886Z,99.99
2017-05-10T21:09:58.824Z,99.99
2017-05-10T21:10:27.033Z,99.99
2017-05-10T21:10:55.228Z,99.99
2017-05-10T21:11:23.468Z,99.99
2017-05-10T21:11:51.728Z,99.99
2017-05-10T21:12:20.029Z,99.99
2017-05-10T21:12:48.409Z,99.99
2017-05-10T21:13:16.658Z,99.99
2017-05-10T21:13:44.850Z,99.99
2017-05-10T21:14:12.858Z,99.99
2017-05-10T21:14:41.108Z,99.99
2017-05-10T21:15:09.403Z,99.99
2017-05-10T21:15:37.663Z,99.99
2017-05-10T21:16:05.847Z,99.99
2017-05-10T21:16:34.071Z,99.99
2017-05-10T21:17:02.296Z,99.99
2017-05-10T21:17:30.668Z,99.99
2017-05-10T21:17:58.935Z,99.99
2017-05-10T21:18:27.179Z,99.99
2017-05-10T21:18:55.361Z,99.99
2017-05-10T21:19:23.543Z,99.99
2017-05-10T21:19:51.742Z,99.99
2017-05-10T21:20:19.862Z,99.99
2017-05-10T21:20:48.018Z,99.99
2017-05-10T21:21:16.193Z,99.99
2017-05-10T21:21:44.497Z,99.99
2017-05-10T21:22:12.684Z,99.99
2017-05-10T21:22:40.903Z,99.99
2017-05-10T21:23:08.976Z,99.99
2017-05-10T21:23:37.278Z,99.99
2017-05-10T21:24:05.601Z,99.99
2017-05-10T21:24:33.815Z,99.99
2017-05-10T21:25:02.034Z,99.99
2017-05-10T21:25:30.330Z,99.99
2017-05-10T21:25:58.589Z,99.99
2017-05-10T21:26:26.763Z,99.99
2017-05-10T21:26:54.928Z,99.99
2017-05-10T21:27:23.195Z,99.99
2017-05-10T21:27:51.552Z,99.99
2017-05-10T21:28:19.850Z,99.99
2017-05-10T21:28:48.043Z,99.99
2017-05-10T21:29:16.363Z,99.99
2017-05-10T21:29:44.574Z,99.99
2017-05-10T21:30:12.831Z,99.99
2017-05-10T21:30:40.982Z,99.99
2017-05-10T21:31:09.123Z,99.99
2017-05-10T21:31:37.197Z,99.99
2017-05-10T21:32:05.443Z,99.99
2017-05-10T21:32:33.611Z,99.99
2017-05-10T21:33:01.974Z,99.99
2017-05-10T21:33:30.195Z,99.99
2017-05-10T21:33:58.346Z,99.99
2017-05-10T21:34:26.495Z,99.99
2017-05-10T21:34:54.655Z,99.99
2017-05-10T21:35:22.860Z,99.99
2017-05-10T21:35:51.001Z,99.99
2017-05-10T21:36:19.176Z,99.99
2017-05-10T21:36:47.368Z,99.99
2017-05-10T21:37:15.591Z,99.99
2017-05-10T21:37:43.845Z,99.99
2017-05-10T21:38:12.372Z,99.99
2017-05-10T21:38:40.570Z,99.99
2017-05-10T21:39:08.872Z,99.99
2017-05-10T21:39:37.145Z,99.99
2017-05-10T21:40:05.356Z,99.99
2017-05-10T21:40:33.628Z,99.99
2017-05-10T21:41:01.809Z,99.99
2017-05-10T21:41:30.101Z,99.99
2017-05-10T21:41:58.251Z,99.99
2017-05-10T21:42:26.461Z,99.99
2017-05-10T21:42:54.778Z,99.99
2017-05-10T21:43:22.968Z,99.99
2017-05-10T21:43:51.108Z,99.99
2017-05-10T21:44:19.410Z,99.99
2017-05-10T21:44:47.569Z,99.99
2017-05-10T21:45:15.766Z,99.99
2017-05-10T21:45:43.775Z,99.99
2017-05-10T21:46:12.035Z,99.99
2017-05-10T21:46:40.235Z,99.99
2017-05-10T21:47:08.563Z,99.99
2017-05-10T21:47:36.680Z,99.99
2017-05-10T21:48:05.106Z,99.99
2017-05-10T21:48:33.112Z,99.99
2017-05-10T21:49:01.194Z,99.99
2017-05-10T21:49:29.394Z,99.99
2017-05-10T21:49:57.653Z,99.99
2017-05-10T21:50:25.899Z,99.99
2017-05-10T21:50:53.958Z,99.99
2017-05-10T21:51:22.112Z,99.99
2017-05-10T21:51:50.365Z,99.99
2017-05-10T21:52:18.652Z,99.99
2017-05-10T21:52:46.933Z,99.99
2017-05-10T21:53:15.186Z,99.99
2017-05-10T21:53:43.456Z,99.99
2017-05-10T21:54:11.685Z,99.99
2017-05-10T21:54:39.735Z,99.99
2017-05-10T21:55:07.982Z,99.99
2017-05-10T21:55:36.232Z,99.99
2017-05-10T21:56:04.490Z,99.99
2017-05-10T21:56:32.756Z,99.99
2017-05-10T21:57:01.020Z,99.99
2017-05-10T21:57:29.197Z,99.99
2017-05-10T21:57:57.392Z,99.99
2017-05-10T21:58:25.724Z,99.99
2017-05-10T21:58:54.013Z,99.99
2017-05-10T21:59:22.169Z,99.99
2017-05-10T21:59:50.320Z,99.99
2017-05-10T22:00:18.521Z,99.99
2017-05-10T22:00:46.690Z,99.99
2017-05-10T22:01:14.885Z,99.99
2017-05-10T22:01:43.139Z,99.99
2017-05-10T22:02:11.268Z,99.99
2017-05-10T22:02:39.490Z,99.99
2017-05-10T22:03:07.663Z,99.99
2017-05-10T22:03:35.896Z,99.99
2017-05-10T22:04:04.156Z,99.99
2017-05-10T22:04:32.407Z,99.99
2017-05-10T22:05:00.685Z,99.99
2017-05-10T22:05:28.957Z,99.99
2017-05-10T22:05:57.138Z,99.99
2017-05-10T22:06:25.211Z,99.99
2017-05-10T22:06:53.462Z,99.99
2017-05-10T22:07:21.641Z,99.99
2017-05-10T22:07:49.803Z,99.99
2017-05-10T22:08:18.185Z,99.99
2017-05-10T22:08:46.401Z,99.99
2017-05-10T22:09:14.712Z,99.99
2017-05-10T22:09:42.841Z,99.99
2017-05-10T22:10:11.182Z,99.99
2017-05-10T22:10:39.489Z,99.99
2017-05-10T22:11:07.605Z,99.99
2017-05-10T22:11:35.806Z,99.99
2017-05-10T22:12:04.022Z,99.99
2017-05-10T22:12:32.301Z,99.99
2017-05-10T22:13:00.571Z,99.99
2017-05-10T22:13:28.933Z,99.99
2017-05-10T22:13:57.161Z,99.99
2017-05-10T22:14:25.240Z,99.99
2017-05-10T22:14:53.494Z,99.99
2017-05-10T22:15:21.745Z,99.99
2017-05-10T22:15:49.975Z,99.99
2017-05-10T22:16:18.112Z,99.99
2017-05-10T22:16:46.320Z,99.99
2017-05-10T22:17:14.585Z,99.99
2017-05-10T22:17:42.921Z,99.99
2017-05-10T22:18:11.191Z,99.99
2017-05-10T22:18:39.362Z,99.99
2017-05-10T22:19:07.480Z,99.99
2017-05-10T22:19:35.785Z,99.99
2017-05-10T22:20:04.084Z,99.99
2017-05-10T22:20:32.149Z,99.99
2017-05-10T22:21:00.427Z,99.99
2017-05-10T22:21:28.717Z,99.99
2017-05-10T22:21:56.882Z,99.99
2017-05-10T22:22:25.038Z,99.99
2017-05-10T22:22:53.262Z,99.99
2017-05-10T22:23:21.398Z,99.99
2017-05-10T22:23:49.813Z,99.99
2017-05-10T22:24:18.123Z,99.99
2017-05-10T22:24:46.307Z,99.99
2017-05-10T22:25:14.534Z,99.99
2017-05-10T22:25:42.529Z,99.99
2017-05-10T22:26:10.822Z,99.99
2017-05-10T22:26:39.106Z,99.99
2017-05-10T22:27:07.334Z,99.99
2017-05-10T22:27:35.519Z,99.99
2017-05-10T22:28:03.783Z,99.99
2017-05-10T22:28:32.003Z,99.99
2017-05-10T22:29:00.262Z,99.99
2017-05-10T22:29:28.425Z,99.99
2017-05-10T22:29:56.724Z,99.99
2017-05-10T22:30:24.813Z,99.99
2017-05-10T22:30:53.087Z,99.99
2017-05-10T22:31:21.357Z,99.99
2017-05-10T22:31:49.659Z,99.99
2017-05-10T22:32:17.829Z,99.99
2017-05-10T22:32:46.123Z,99.99
2017-05-10T22:33:14.359Z,99.99
2017-05-10T22:33:42.703Z,99.99
2017-05-10T22:34:10.989Z,99.99
2017-05-10T22:34:39.211Z,99.99
2017-05-10T22:35:07.500Z,99.99
2017-05-10T22:35:35.616Z,99.99
2017-05-10T22:36:03.893Z,99.99
2017-05-10T22:36:32.126Z,99.99
2017-05-10T22:37:00.438Z,99.99
2017-05-10T22:37:28.638Z,99.99
2017-05-10T22:37:56.922Z,99.99
2017-05-10T22:38:25.199Z,99.99
2017-05-10T22:38:53.467Z,99.99
2017-05-10T22:39:21.740Z,99.99
2017-05-10T22:39:49.808Z,99.99
2017-05-10T22:40:17.837Z,99.99
2017-05-10T22:40:45.934Z,99.99
2017-05-10T22:41:14.101Z,99.99
2017-05-10T22:41:42.375Z,99.99
2017-05-10T22:42:10.539Z,99.99
2017-05-10T22:42:38.713Z,99.99
2017-05-10T22:43:07.008Z,99.99
2017-05-10T22:43:35.092Z,99.99
2017-05-10T22:44:03.331Z,99.99
2017-05-10T22:44:31.581Z,99.99
2017-05-10T22:44:59.843Z,99.99
2017-05-10T22:45:28.027Z,99.99
2017-05-10T22:45:56.130Z,99.99
2017-05-10T22:46:24.323Z,99.99
2017-05-10T22:46:52.510Z,99.99
2017-05-10T22:47:20.802Z,99.99
2017-05-10T22:47:48.865Z,99.99
2017-05-10T22:48:16.870Z,99.99
2017-05-10T22:48:45.021Z,99.99
2017-05-10T22:49:13.232Z,99.99
2017-05-10T22:49:41.410Z,99.99
2017-05-10T22:50:09.689Z,99.99
2017-05-10T22:50:38.016Z,99.99
2017-05-10T22:51:06.314Z,99.99
2017-05-10T22:51:34.584Z,99.99
2017-05-10T22:52:02.719Z,99.99
2017-05-10T22:52:30.880Z,99.99
2017-05-10T22:52:59.165Z,99.99
2017-05-10T22:53:27.423Z,99.99
2017-05-10T22:53:55.625Z,99.99
2017-05-10T22:54:23.722Z,99.99
2017-05-10T22:54:51.800Z,99.99
2017-05-10T22:55:20.092Z,99.99
2017-05-10T22:55:48.327Z,99.99
2017-05-10T22:56:16.454Z,99.99
2017-05-10T22:56:44.639Z,99.99
2017-05-10T22:57:12.527Z,99.99
2017-05-10T22:57:40.723Z,99.99
2017-05-10T22:58:08.913Z,99.99
2017-05-10T22:58:37.253Z,99.99
2017-05-10T22:59:05.487Z,99.99
2017-05-10T22:59:33.742Z,99.99
2017-05-10T23:00:02.032Z,99.99
2017-05-10T23:00:30.120Z,99.99
2017-05-10T23:00:58.408Z,99.99
2017-05-10T23:01:26.572Z,99.99
2017-05-10T23:01:54.634Z,99.99
2017-05-10T23:02:22.838Z,99.99
2017-05-10T23:02:50.904Z,99.99
2017-05-10T23:03:19.107Z,99.99
2017-05-10T23:03:47.392Z,99.99
2017-05-10T23:04:15.478Z,99.99
2017-05-10T23:04:43.462Z,99.99
2017-05-10T23:05:11.760Z,99.99
2017-05-10T23:05:39.966Z,99.99
2017-05-10T23:06:08.375Z,99.99
2017-05-10T23:06:36.623Z,99.99
2017-05-10T23:07:04.789Z,99.99
2017-05-10T23:07:33.018Z,99.99
2017-05-10T23:08:01.313Z,99.99
2017-05-10T23:08:29.379Z,99.99
2017-05-10T23:08:57.516Z,99.99
2017-05-10T23:09:25.982Z,99.99
2017-05-10T23:09:54.240Z,99.99
2017-05-10T23:10:22.528Z,99.99
2017-05-10T23:10:50.725Z,99.99
2017-05-10T23:11:18.992Z,99.99
2017-05-10T23:11:47.166Z,99.99
2017-05-10T23:12:15.305Z,99.99
2017-05-10T23:12:43.597Z,99.99
2017-05-10T23:13:11.775Z,99.99
2017-05-10T23:13:40.032Z,99.99
2017-05-10T23:14:08.207Z,99.99
2017-05-10T23:14:36.437Z,99.99
2017-05-10T23:15:04.767Z,99.99
2017-05-10T23:15:32.974Z,99.99
2017-05-10T23:16:01.064Z,99.99
2017-05-10T23:16:29.293Z,99.99
2017-05-10T23:16:57.553Z,99.99
2017-05-10T23:17:25.773Z,99.99
2017-05-10T23:17:54.091Z,99.99
2017-05-10T23:18:22.236Z,99.99
2017-05-10T23:18:50.397Z,99.99
2017-05-10T23:19:18.681Z,99.99
2017-05-10T23:19:47.041Z,99.99
2017-05-10T23:20:15.064Z,99.99
2017-05-10T23:20:43.302Z,99.99
2017-05-10T23:21:11.392Z,99.99
2017-05-10T23:21:39.612Z,99.99
2017-05-10T23:22:07.692Z,99.99
2017-05-10T23:22:35.855Z,99.99
2017-05-10T23:23:04.094Z,99.99
2017-05-10T23:23:32.332Z,99.99
2017-05-10T23:24:00.585Z,99.99
2017-05-10T23:24:28.811Z,99.99
2017-05-10T23:24:57.588Z,99.99
2017-05-10T23:25:26.245Z,99.99
2017-05-10T23:25:54.935Z,99.99
2017-05-10T23:26:23.497Z,99.99
2017-05-10T23:26:51.863Z,99.99
2017-05-10T23:27:20.527Z,99.99
2017-05-10T23:27:48.760Z,99.99
2017-05-10T23:28:16.888Z,99.99
2017-05-10T23:28:45.166Z,99.99
2017-05-10T23:29:13.445Z,99.99
2017-05-10T23:29:41.777Z,99.99
2017-05-10T23:30:10.047Z,99.99
2017-05-10T23:30:38.253Z,99.99
2017-05-10T23:31:06.415Z,99.99
2017-05-10T23:31:34.615Z,99.99
2017-05-10T23:32:02.913Z,99.99
2017-05-10T23:32:31.062Z,99.99
2017-05-10T23:32:59.302Z,99.99
2017-05-10T23:33:27.513Z,99.99
2017-05-10T23:33:55.756Z,99.99
2017-05-10T23:34:23.945Z,99.99
2017-05-10T23:34:52.127Z,99.99
2017-05-10T23:35:20.189Z,99.99
2017-05-10T23:35:48.396Z,99.99
2017-05-10T23:36:16.479Z,99.99
2017-05-10T23:36:44.624Z,99.99
2017-05-10T23:37:12.866Z,99.99
2017-05-10T23:37:41.057Z,99.99
2017-05-10T23:38:09.317Z,99.99
2017-05-10T23:38:37.657Z,99.99
2017-05-10T23:39:05.835Z,99.99
2017-05-10T23:39:34.124Z,99.99
2017-05-10T23:40:02.481Z,99.99
2017-05-10T23:40:30.728Z,99.99
2017-05-10T23:40:58.920Z,99.99
2017-05-10T23:41:27.078Z,99.99
2017-05-10T23:41:55.332Z,99.99
2017-05-10T23:42:23.647Z,99.99
2017-05-10T23:42:51.863Z,99.99
2017-05-10T23:43:20.068Z,99.99
2017-05-10T23:43:48.238Z,99.99
2017-05-10T23:44:16.364Z,99.99
2017-05-10T23:44:44.542Z,99.99
2017-05-10T23:45:13.045Z,99.99
2017-05-10T23:45:41.286Z,99.99
2017-05-10T23:46:09.481Z,99.99
2017-05-10T23:46:37.795Z,99.99
2017-05-10T23:47:06.056Z,99.99
2017-05-10T23:47:34.158Z,99.99
2017-05-10T23:48:02.437Z,99.99
2017-05-10T23:48:30.709Z,99.99
2017-05-10T23:48:59.004Z,99.99
2017-05-10T23:49:27.226Z,99.99
2017-05-10T23:49:55.424Z,99.99
2017-05-10T23:50:23.743Z,99.99
2017-05-10T23:50:51.977Z,99.99
2017-05-10T23:51:20.261Z,99.99
2017-05-10T23:51:48.539Z,99.99
2017-05-10T23:52:16.805Z,99.99
2017-05-10T23:52:44.859Z,99.99
2017-05-10T23:53:13.046Z,99.99
2017-05-10T23:53:41.230Z,99.99
2017-05-10T23:54:09.525Z,99.99
2017-05-10T23:54:37.783Z,99.99
2017-05-10T23:55:06.184Z,99.99
2017-05-10T23:55:34.393Z,99.99
2017-05-10T23:56:02.576Z,99.99
2017-05-10T23:56:30.807Z,99.99
2017-05-10T23:56:58.969Z,99.99
2017-05-10T23:57:27.161Z,99.99
2017-05-10T23:57:55.240Z,99.99
2017-05-10T23:58:23.352Z,99.99
2017-05-10T23:58:51.625Z,99.99